Offutt Lake, Washington
Current Conditions -  °F | °C
As of 7:54 PM on Tuesday 21 Oct 2014 (Local Time) from KOLM Reporting Station
Overcast Overcast  
Wind Chill: 14°   Ceiling: 6500
Heat Index: 14°   Visibility: 10mi
Dew Point:   Wind: 14mph
Humidity: 72%   Direction: 170°S
Pressure: 29.83"   Gusts: 23mph
Location:  46.9755°N, 122.872°W
Report Text: KOLM 220254Z AUTO 17012G20KT 10SM SCT049 OVC065 14/09 A2983 RMK AO2 SLP102 T01440094 58015
Loading
Personal Weather Stations






























Interactive Weather Map
Tropical Storm Tracking
New forecast layout! Learn more

10-Day Weather Forecast

Advertisements
Track Severe Weather on mobile